sensor_id;sensor_type;location;lat;lon;timestamp;temperature;humidity
72440;DHT22;60446;50.752;4.352;2023-08-12T00:02:16;21.10;79.10
72440;DHT22;60446;50.752;4.352;2023-08-12T00:04:45;21.10;79.10
72440;DHT22;60446;50.752;4.352;2023-08-12T00:07:13;21.10;79.10
72440;DHT22;60446;50.752;4.352;2023-08-12T00:09:41;21.10;79.20
72440;DHT22;60446;50.752;4.352;2023-08-12T00:12:08;21.00;79.30
72440;DHT22;60446;50.752;4.352;2023-08-12T00:14:35;21.00;79.60
72440;DHT22;60446;50.752;4.352;2023-08-12T00:17:02;20.90;79.90
72440;DHT22;60446;50.752;4.352;2023-08-12T00:19:29;21.00;79.90
72440;DHT22;60446;50.752;4.352;2023-08-12T00:21:57;21.00;80.10
72440;DHT22;60446;50.752;4.352;2023-08-12T00:24:24;21.00;80.10
72440;DHT22;60446;50.752;4.352;2023-08-12T00:26:51;21.00;80.10
72440;DHT22;60446;50.752;4.352;2023-08-12T00:29:18;21.00;80.30
72440;DHT22;60446;50.752;4.352;2023-08-12T00:31:45;21.00;80.10
72440;DHT22;60446;50.752;4.352;2023-08-12T00:34:14;21.00;79.60
72440;DHT22;60446;50.752;4.352;2023-08-12T00:36:41;21.00;80.00
72440;DHT22;60446;50.752;4.352;2023-08-12T00:39:08;21.10;80.00
72440;DHT22;60446;50.752;4.352;2023-08-12T00:41:36;21.10;80.00
72440;DHT22;60446;50.752;4.352;2023-08-12T00:44:03;21.10;79.90
72440;DHT22;60446;50.752;4.352;2023-08-12T00:46:31;21.10;80.00
72440;DHT22;60446;50.752;4.352;2023-08-12T00:49:00;21.10;79.80
72440;DHT22;60446;50.752;4.352;2023-08-12T00:51:27;21.10;79.80
72440;DHT22;60446;50.752;4.352;2023-08-12T00:54:00;21.10;80.10
72440;DHT22;60446;50.752;4.352;2023-08-12T00:56:30;21.10;79.70
72440;DHT22;60446;50.752;4.352;2023-08-12T00:59:00;21.10;79.90
72440;DHT22;60446;50.752;4.352;2023-08-12T01:01:30;21.10;79.80
72440;DHT22;60446;50.752;4.352;2023-08-12T01:03:57;21.00;79.70
72440;DHT22;60446;50.752;4.352;2023-08-12T01:06:25;21.00;79.80
72440;DHT22;60446;50.752;4.352;2023-08-12T01:08:53;21.00;79.90
72440;DHT22;60446;50.752;4.352;2023-08-12T01:11:30;21.10;80.10
72440;DHT22;60446;50.752;4.352;2023-08-12T01:14:17;21.10;79.90
72440;DHT22;60446;50.752;4.352;2023-08-12T01:16:49;21.00;80.30
72440;DHT22;60446;50.752;4.352;2023-08-12T01:19:38;21.00;80.30
72440;DHT22;60446;50.752;4.352;2023-08-12T01:22:09;21.00;80.60
72440;DHT22;60446;50.752;4.352;2023-08-12T01:24:39;20.90;80.70
72440;DHT22;60446;50.752;4.352;2023-08-12T01:27:09;20.90;80.80
72440;DHT22;60446;50.752;4.352;2023-08-12T01:29:40;20.80;81.20
72440;DHT22;60446;50.752;4.352;2023-08-12T01:34:43;20.80;81.50
72440;DHT22;60446;50.752;4.352;2023-08-12T01:37:20;20.80;81.30
72440;DHT22;60446;50.752;4.352;2023-08-12T01:39:52;20.60;81.60
72440;DHT22;60446;50.752;4.352;2023-08-12T01:42:22;20.70;81.90
72440;DHT22;60446;50.752;4.352;2023-08-12T01:44:49;20.70;81.70
72440;DHT22;60446;50.752;4.352;2023-08-12T01:47:17;20.70;81.90
72440;DHT22;60446;50.752;4.352;2023-08-12T01:49:44;20.60;82.10
72440;DHT22;60446;50.752;4.352;2023-08-12T01:52:11;20.70;82.00
72440;DHT22;60446;50.752;4.352;2023-08-12T01:54:39;20.70;81.90
72440;DHT22;60446;50.752;4.352;2023-08-12T01:57:06;20.70;82.00
72440;DHT22;60446;50.752;4.352;2023-08-12T01:59:35;20.70;81.80
72440;DHT22;60446;50.752;4.352;2023-08-12T02:02:03;20.80;81.70
72440;DHT22;60446;50.752;4.352;2023-08-12T02:04:32;20.70;81.80
72440;DHT22;60446;50.752;4.352;2023-08-12T02:07:00;20.70;81.80
72440;DHT22;60446;50.752;4.352;2023-08-12T02:09:27;20.80;82.00
72440;DHT22;60446;50.752;4.352;2023-08-12T02:11:54;20.70;82.00
72440;DHT22;60446;50.752;4.352;2023-08-12T02:14:22;20.70;82.00
72440;DHT22;60446;50.752;4.352;2023-08-12T02:16:49;20.80;81.90
72440;DHT22;60446;50.752;4.352;2023-08-12T02:19:16;20.80;82.00
72440;DHT22;60446;50.752;4.352;2023-08-12T02:21:44;20.80;81.80
72440;DHT22;60446;50.752;4.352;2023-08-12T02:24:11;20.80;82.40
72440;DHT22;60446;50.752;4.352;2023-08-12T02:26:38;20.70;82.70
72440;DHT22;60446;50.752;4.352;2023-08-12T02:29:05;20.80;82.30
72440;DHT22;60446;50.752;4.352;2023-08-12T02:31:33;20.80;82.30
72440;DHT22;60446;50.752;4.352;2023-08-12T02:34:00;20.80;82.60
72440;DHT22;60446;50.752;4.352;2023-08-12T02:36:27;20.80;82.60
72440;DHT22;60446;50.752;4.352;2023-08-12T02:38:55;20.70;83.20
72440;DHT22;60446;50.752;4.352;2023-08-12T02:41:22;20.70;83.50
72440;DHT22;60446;50.752;4.352;2023-08-12T02:43:50;20.70;83.30
72440;DHT22;60446;50.752;4.352;2023-08-12T02:46:17;20.70;83.30
72440;DHT22;60446;50.752;4.352;2023-08-12T02:48:45;20.70;83.20
72440;DHT22;60446;50.752;4.352;2023-08-12T02:51:14;20.70;83.40
72440;DHT22;60446;50.752;4.352;2023-08-12T02:53:41;20.70;83.50
72440;DHT22;60446;50.752;4.352;2023-08-12T02:56:09;20.70;83.20
72440;DHT22;60446;50.752;4.352;2023-08-12T02:58:36;20.70;83.50
72440;DHT22;60446;50.752;4.352;2023-08-12T03:01:04;20.70;83.40
72440;DHT22;60446;50.752;4.352;2023-08-12T03:03:31;20.70;83.50
72440;DHT22;60446;50.752;4.352;2023-08-12T03:05:59;20.60;83.60
72440;DHT22;60446;50.752;4.352;2023-08-12T03:08:28;20.70;83.50
72440;DHT22;60446;50.752;4.352;2023-08-12T03:11:02;20.70;83.30
72440;DHT22;60446;50.752;4.352;2023-08-12T03:13:30;20.70;83.40
72440;DHT22;60446;50.752;4.352;2023-08-12T03:15:58;20.70;83.50
72440;DHT22;60446;50.752;4.352;2023-08-12T03:18:25;20.70;83.70
72440;DHT22;60446;50.752;4.352;2023-08-12T03:20:53;20.70;83.60
72440;DHT22;60446;50.752;4.352;2023-08-12T03:23:22;20.70;83.50
72440;DHT22;60446;50.752;4.352;2023-08-12T03:25:50;20.60;83.60
72440;DHT22;60446;50.752;4.352;2023-08-12T03:28:17;20.50;83.70
72440;DHT22;60446;50.752;4.352;2023-08-12T03:30:52;20.50;84.10
72440;DHT22;60446;50.752;4.352;2023-08-12T03:33:22;20.50;84.30
72440;DHT22;60446;50.752;4.352;2023-08-12T03:35:50;20.50;84.10
72440;DHT22;60446;50.752;4.352;2023-08-12T03:38:17;20.60;84.10
72440;DHT22;60446;50.752;4.352;2023-08-12T03:40:45;20.60;84.20
72440;DHT22;60446;50.752;4.352;2023-08-12T03:43:15;20.60;84.40
72440;DHT22;60446;50.752;4.352;2023-08-12T03:45:44;20.60;84.40
72440;DHT22;60446;50.752;4.352;2023-08-12T03:48:14;20.70;84.30
72440;DHT22;60446;50.752;4.352;2023-08-12T03:50:42;20.60;83.90
72440;DHT22;60446;50.752;4.352;2023-08-12T03:53:09;20.60;84.50
72440;DHT22;60446;50.752;4.352;2023-08-12T03:55:38;20.50;84.70
72440;DHT22;60446;50.752;4.352;2023-08-12T03:58:06;20.50;84.60
72440;DHT22;60446;50.752;4.352;2023-08-12T04:00:33;20.50;84.60
72440;DHT22;60446;50.752;4.352;2023-08-12T04:03:02;20.40;85.00
72440;DHT22;60446;50.752;4.352;2023-08-12T04:05:29;20.50;84.80
72440;DHT22;60446;50.752;4.352;2023-08-12T04:07:56;20.50;84.60
72440;DHT22;60446;50.752;4.352;2023-08-12T04:10:24;20.60;84.40
72440;DHT22;60446;50.752;4.352;2023-08-12T04:12:52;20.50;84.80
72440;DHT22;60446;50.752;4.352;2023-08-12T04:15:19;20.60;84.70
72440;DHT22;60446;50.752;4.352;2023-08-12T04:17:48;20.50;84.80
72440;DHT22;60446;50.752;4.352;2023-08-12T04:20:15;20.60;84.50
72440;DHT22;60446;50.752;4.352;2023-08-12T04:22:42;20.60;84.60
72440;DHT22;60446;50.752;4.352;2023-08-12T04:25:13;20.40;84.70
72440;DHT22;60446;50.752;4.352;2023-08-12T04:27:40;20.30;85.50
72440;DHT22;60446;50.752;4.352;2023-08-12T04:30:07;20.20;85.70
72440;DHT22;60446;50.752;4.352;2023-08-12T04:32:36;20.30;85.70
72440;DHT22;60446;50.752;4.352;2023-08-12T04:35:04;20.30;85.70
72440;DHT22;60446;50.752;4.352;2023-08-12T04:37:36;20.20;85.90
72440;DHT22;60446;50.752;4.352;2023-08-12T04:40:03;20.20;86.00
72440;DHT22;60446;50.752;4.352;2023-08-12T04:42:31;20.30;85.70
72440;DHT22;60446;50.752;4.352;2023-08-12T04:44:59;20.20;86.30
72440;DHT22;60446;50.752;4.352;2023-08-12T04:47:29;20.20;86.20
72440;DHT22;60446;50.752;4.352;2023-08-12T04:49:56;20.30;86.10
72440;DHT22;60446;50.752;4.352;2023-08-12T04:52:25;20.30;86.00
72440;DHT22;60446;50.752;4.352;2023-08-12T04:54:55;20.20;86.10
72440;DHT22;60446;50.752;4.352;2023-08-12T04:57:24;20.20;85.90
72440;DHT22;60446;50.752;4.352;2023-08-12T04:59:53;20.20;86.40
72440;DHT22;60446;50.752;4.352;2023-08-12T05:02:21;20.20;86.40
72440;DHT22;60446;50.752;4.352;2023-08-12T05:04:50;20.20;86.40
72440;DHT22;60446;50.752;4.352;2023-08-12T05:07:19;20.30;86.00
72440;DHT22;60446;50.752;4.352;2023-08-12T05:09:46;20.20;86.00
72440;DHT22;60446;50.752;4.352;2023-08-12T05:12:15;20.10;86.20
72440;DHT22;60446;50.752;4.352;2023-08-12T05:14:43;20.20;86.40
72440;DHT22;60446;50.752;4.352;2023-08-12T05:17:10;20.20;86.60
72440;DHT22;60446;50.752;4.352;2023-08-12T05:19:38;20.20;86.10
72440;DHT22;60446;50.752;4.352;2023-08-12T05:22:05;20.30;86.00
72440;DHT22;60446;50.752;4.352;2023-08-12T05:24:32;20.30;86.00
72440;DHT22;60446;50.752;4.352;2023-08-12T05:26:59;20.20;86.30
72440;DHT22;60446;50.752;4.352;2023-08-12T05:29:27;20.30;86.00
72440;DHT22;60446;50.752;4.352;2023-08-12T05:31:54;20.20;86.00
72440;DHT22;60446;50.752;4.352;2023-08-12T05:34:21;20.20;86.40
72440;DHT22;60446;50.752;4.352;2023-08-12T05:36:48;20.10;86.60
72440;DHT22;60446;50.752;4.352;2023-08-12T05:39:16;20.10;87.10
72440;DHT22;60446;50.752;4.352;2023-08-12T05:41:43;20.20;86.40
72440;DHT22;60446;50.752;4.352;2023-08-12T05:44:10;20.20;86.20
72440;DHT22;60446;50.752;4.352;2023-08-12T05:46:37;20.20;86.80
72440;DHT22;60446;50.752;4.352;2023-08-12T05:49:05;20.20;86.40
72440;DHT22;60446;50.752;4.352;2023-08-12T05:51:32;20.30;86.30
72440;DHT22;60446;50.752;4.352;2023-08-12T05:53:59;20.30;85.90
72440;DHT22;60446;50.752;4.352;2023-08-12T05:56:26;20.30;86.10
72440;DHT22;60446;50.752;4.352;2023-08-12T05:58:53;20.20;86.60
72440;DHT22;60446;50.752;4.352;2023-08-12T06:01:21;20.20;86.90
72440;DHT22;60446;50.752;4.352;2023-08-12T06:03:48;20.20;86.70
72440;DHT22;60446;50.752;4.352;2023-08-12T06:06:15;20.30;86.60
72440;DHT22;60446;50.752;4.352;2023-08-12T06:08:43;20.20;86.90
72440;DHT22;60446;50.752;4.352;2023-08-12T06:11:10;20.30;86.90
72440;DHT22;60446;50.752;4.352;2023-08-12T06:13:37;20.40;86.20
72440;DHT22;60446;50.752;4.352;2023-08-12T06:16:04;20.40;85.90
72440;DHT22;60446;50.752;4.352;2023-08-12T06:18:32;20.30;86.40
72440;DHT22;60446;50.752;4.352;2023-08-12T06:21:00;20.30;86.30
72440;DHT22;60446;50.752;4.352;2023-08-12T06:23:27;20.40;86.10
72440;DHT22;60446;50.752;4.352;2023-08-12T06:25:55;20.30;86.20
72440;DHT22;60446;50.752;4.352;2023-08-12T06:28:22;20.30;86.40
72440;DHT22;60446;50.752;4.352;2023-08-12T06:30:49;20.40;86.50
72440;DHT22;60446;50.752;4.352;2023-08-12T06:33:17;20.50;85.50
72440;DHT22;60446;50.752;4.352;2023-08-12T06:35:44;20.50;85.50
72440;DHT22;60446;50.752;4.352;2023-08-12T06:38:16;20.50;85.80
72440;DHT22;60446;50.752;4.352;2023-08-12T06:40:43;20.50;86.00
72440;DHT22;60446;50.752;4.352;2023-08-12T06:43:11;20.70;85.70
72440;DHT22;60446;50.752;4.352;2023-08-12T06:45:38;20.70;85.10
72440;DHT22;60446;50.752;4.352;2023-08-12T06:48:05;20.70;84.90
72440;DHT22;60446;50.752;4.352;2023-08-12T06:50:33;20.70;85.00
72440;DHT22;60446;50.752;4.352;2023-08-12T06:53:00;20.70;85.10
72440;DHT22;60446;50.752;4.352;2023-08-12T06:55:27;20.70;84.90
72440;DHT22;60446;50.752;4.352;2023-08-12T06:57:55;20.80;85.00
72440;DHT22;60446;50.752;4.352;2023-08-12T07:00:22;20.80;84.80
72440;DHT22;60446;50.752;4.352;2023-08-12T07:02:49;20.80;84.40
72440;DHT22;60446;50.752;4.352;2023-08-12T07:05:16;20.70;84.90
72440;DHT22;60446;50.752;4.352;2023-08-12T07:07:44;20.80;85.00
72440;DHT22;60446;50.752;4.352;2023-08-12T07:10:11;20.80;85.20
72440;DHT22;60446;50.752;4.352;2023-08-12T07:12:38;20.90;84.80
72440;DHT22;60446;50.752;4.352;2023-08-12T07:15:06;20.90;84.50
72440;DHT22;60446;50.752;4.352;2023-08-12T07:17:34;20.80;82.50
72440;DHT22;60446;50.752;4.352;2023-08-12T07:20:01;20.50;80.70
72440;DHT22;60446;50.752;4.352;2023-08-12T07:22:31;20.10;80.40
72440;DHT22;60446;50.752;4.352;2023-08-12T07:24:58;19.90;81.30
72440;DHT22;60446;50.752;4.352;2023-08-12T07:27:27;19.90;81.10
72440;DHT22;60446;50.752;4.352;2023-08-12T07:29:54;19.80;81.30
72440;DHT22;60446;50.752;4.352;2023-08-12T07:32:22;19.80;81.00
72440;DHT22;60446;50.752;4.352;2023-08-12T07:34:49;19.70;81.30
72440;DHT22;60446;50.752;4.352;2023-08-12T07:37:16;19.80;80.90
72440;DHT22;60446;50.752;4.352;2023-08-12T07:39:43;19.90;80.40
72440;DHT22;60446;50.752;4.352;2023-08-12T07:42:11;20.00;79.80
72440;DHT22;60446;50.752;4.352;2023-08-12T07:44:39;20.10;80.70
72440;DHT22;60446;50.752;4.352;2023-08-12T07:47:06;20.20;80.10
72440;DHT22;60446;50.752;4.352;2023-08-12T07:49:33;20.30;78.80
72440;DHT22;60446;50.752;4.352;2023-08-12T07:52:01;20.30;79.80
72440;DHT22;60446;50.752;4.352;2023-08-12T07:54:28;20.20;78.60
72440;DHT22;60446;50.752;4.352;2023-08-12T07:56:55;20.10;80.10
72440;DHT22;60446;50.752;4.352;2023-08-12T07:59:23;20.10;79.00
72440;DHT22;60446;50.752;4.352;2023-08-12T08:01:50;20.30;80.50
72440;DHT22;60446;50.752;4.352;2023-08-12T08:04:17;20.50;79.20
72440;DHT22;60446;50.752;4.352;2023-08-12T08:06:45;20.80;78.10
72440;DHT22;60446;50.752;4.352;2023-08-12T08:09:15;21.00;77.50
72440;DHT22;60446;50.752;4.352;2023-08-12T08:11:42;21.00;78.10
72440;DHT22;60446;50.752;4.352;2023-08-12T08:14:09;21.10;77.60
72440;DHT22;60446;50.752;4.352;2023-08-12T08:16:36;21.10;77.40
72440;DHT22;60446;50.752;4.352;2023-08-12T08:19:07;21.00;77.50
72440;DHT22;60446;50.752;4.352;2023-08-12T08:21:39;21.00;78.30
72440;DHT22;60446;50.752;4.352;2023-08-12T08:24:06;21.00;78.20
72440;DHT22;60446;50.752;4.352;2023-08-12T08:26:35;21.00;78.10
72440;DHT22;60446;50.752;4.352;2023-08-12T08:29:02;21.10;77.10
72440;DHT22;60446;50.752;4.352;2023-08-12T08:31:30;21.10;77.60
72440;DHT22;60446;50.752;4.352;2023-08-12T08:33:57;21.10;77.80
72440;DHT22;60446;50.752;4.352;2023-08-12T08:36:24;21.20;77.70
72440;DHT22;60446;50.752;4.352;2023-08-12T08:38:51;21.40;77.80
72440;DHT22;60446;50.752;4.352;2023-08-12T08:41:19;21.40;78.10
72440;DHT22;60446;50.752;4.352;2023-08-12T08:43:48;21.60;77.50
72440;DHT22;60446;50.752;4.352;2023-08-12T08:46:15;21.70;76.60
72440;DHT22;60446;50.752;4.352;2023-08-12T08:48:43;21.60;77.00
72440;DHT22;60446;50.752;4.352;2023-08-12T08:51:11;21.60;74.60
72440;DHT22;60446;50.752;4.352;2023-08-12T08:53:39;21.50;75.40
72440;DHT22;60446;50.752;4.352;2023-08-12T08:56:08;21.40;74.90
72440;DHT22;60446;50.752;4.352;2023-08-12T08:58:41;21.40;73.80
72440;DHT22;60446;50.752;4.352;2023-08-12T09:01:09;21.50;75.00
72440;DHT22;60446;50.752;4.352;2023-08-12T09:03:38;21.60;74.60
72440;DHT22;60446;50.752;4.352;2023-08-12T09:06:08;21.70;73.80
72440;DHT22;60446;50.752;4.352;2023-08-12T09:08:36;21.80;75.30
72440;DHT22;60446;50.752;4.352;2023-08-12T09:11:05;22.00;74.90
72440;DHT22;60446;50.752;4.352;2023-08-12T09:13:33;22.30;73.60
72440;DHT22;60446;50.752;4.352;2023-08-12T09:16:00;22.40;74.10
72440;DHT22;60446;50.752;4.352;2023-08-12T09:18:29;22.40;71.50
72440;DHT22;60446;50.752;4.352;2023-08-12T09:20:57;22.40;71.00
72440;DHT22;60446;50.752;4.352;2023-08-12T09:23:26;22.20;71.30
72440;DHT22;60446;50.752;4.352;2023-08-12T09:25:54;22.10;72.50
72440;DHT22;60446;50.752;4.352;2023-08-12T09:28:21;22.10;70.90
72440;DHT22;60446;50.752;4.352;2023-08-12T09:30:51;22.00;70.80
72440;DHT22;60446;50.752;4.352;2023-08-12T09:33:25;21.90;71.80
72440;DHT22;60446;50.752;4.352;2023-08-12T09:35:55;21.80;73.10
72440;DHT22;60446;50.752;4.352;2023-08-12T09:38:23;21.50;71.90
72440;DHT22;60446;50.752;4.352;2023-08-12T09:40:52;21.30;73.70
72440;DHT22;60446;50.752;4.352;2023-08-12T09:43:24;21.30;74.50
72440;DHT22;60446;50.752;4.352;2023-08-12T09:45:56;21.40;76.30
72440;DHT22;60446;50.752;4.352;2023-08-12T09:48:26;21.40;75.30
72440;DHT22;60446;50.752;4.352;2023-08-12T09:50:53;21.50;74.20
72440;DHT22;60446;50.752;4.352;2023-08-12T09:53:22;21.50;73.90
72440;DHT22;60446;50.752;4.352;2023-08-12T09:55:52;21.60;74.70
72440;DHT22;60446;50.752;4.352;2023-08-12T09:58:22;21.80;74.80
72440;DHT22;60446;50.752;4.352;2023-08-12T10:00:51;22.00;74.00
72440;DHT22;60446;50.752;4.352;2023-08-12T10:03:20;22.10;71.80
72440;DHT22;60446;50.752;4.352;2023-08-12T10:05:48;22.10;72.40
72440;DHT22;60446;50.752;4.352;2023-08-12T10:08:17;22.30;71.50
72440;DHT22;60446;50.752;4.352;2023-08-12T10:10:45;22.30;71.10
72440;DHT22;60446;50.752;4.352;2023-08-12T10:13:25;22.30;70.60
72440;DHT22;60446;50.752;4.352;2023-08-12T10:15:52;22.30;69.30
72440;DHT22;60446;50.752;4.352;2023-08-12T10:18:20;22.30;71.50
72440;DHT22;60446;50.752;4.352;2023-08-12T10:20:50;22.30;70.70
72440;DHT22;60446;50.752;4.352;2023-08-12T10:23:18;22.50;71.40
72440;DHT22;60446;50.752;4.352;2023-08-12T10:25:45;22.60;71.30
72440;DHT22;60446;50.752;4.352;2023-08-12T10:28:14;22.80;72.50
72440;DHT22;60446;50.752;4.352;2023-08-12T10:30:41;22.90;71.50
72440;DHT22;60446;50.752;4.352;2023-08-12T10:33:10;22.90;70.90
72440;DHT22;60446;50.752;4.352;2023-08-12T10:35:45;22.70;69.60
72440;DHT22;60446;50.752;4.352;2023-08-12T10:38:20;22.50;68.70
72440;DHT22;60446;50.752;4.352;2023-08-12T10:40:48;22.40;70.50
72440;DHT22;60446;50.752;4.352;2023-08-12T10:43:15;22.40;71.90
72440;DHT22;60446;50.752;4.352;2023-08-12T10:45:46;22.40;71.30
72440;DHT22;60446;50.752;4.352;2023-08-12T10:48:25;22.30;69.40
72440;DHT22;60446;50.752;4.352;2023-08-12T10:50:58;22.20;69.40
72440;DHT22;60446;50.752;4.352;2023-08-12T10:53:31;22.20;71.10
72440;DHT22;60446;50.752;4.352;2023-08-12T10:56:03;22.10;70.60
72440;DHT22;60446;50.752;4.352;2023-08-12T10:58:45;22.10;71.50
72440;DHT22;60446;50.752;4.352;2023-08-12T11:01:17;22.20;72.30
72440;DHT22;60446;50.752;4.352;2023-08-12T11:03:45;22.20;71.00
72440;DHT22;60446;50.752;4.352;2023-08-12T11:06:13;22.20;69.70
72440;DHT22;60446;50.752;4.352;2023-08-12T11:08:48;22.40;70.60
72440;DHT22;60446;50.752;4.352;2023-08-12T11:11:22;22.50;70.50
72440;DHT22;60446;50.752;4.352;2023-08-12T11:13:54;22.70;71.00
72440;DHT22;60446;50.752;4.352;2023-08-12T11:16:35;22.80;67.70
72440;DHT22;60446;50.752;4.352;2023-08-12T11:19:04;22.90;68.30
72440;DHT22;60446;50.752;4.352;2023-08-12T11:21:32;23.00;68.10
72440;DHT22;60446;50.752;4.352;2023-08-12T11:24:02;23.00;66.40
72440;DHT22;60446;50.752;4.352;2023-08-12T11:26:30;22.90;67.10
72440;DHT22;60446;50.752;4.352;2023-08-12T11:28:57;22.90;66.50
72440;DHT22;60446;50.752;4.352;2023-08-12T11:31:25;23.00;69.40
72440;DHT22;60446;50.752;4.352;2023-08-12T11:33:54;23.20;66.10
72440;DHT22;60446;50.752;4.352;2023-08-12T11:36:21;23.40;66.90
72440;DHT22;60446;50.752;4.352;2023-08-12T11:38:48;23.50;65.90
72440;DHT22;60446;50.752;4.352;2023-08-12T11:41:18;23.40;64.50
72440;DHT22;60446;50.752;4.352;2023-08-12T11:43:45;23.40;65.60
72440;DHT22;60446;50.752;4.352;2023-08-12T11:46:15;23.60;66.30
72440;DHT22;60446;50.752;4.352;2023-08-12T11:48:43;24.00;66.10
72440;DHT22;60446;50.752;4.352;2023-08-12T11:51:11;24.20;64.30
72440;DHT22;60446;50.752;4.352;2023-08-12T11:53:38;24.20;63.40
72440;DHT22;60446;50.752;4.352;2023-08-12T11:56:05;24.20;63.90
72440;DHT22;60446;50.752;4.352;2023-08-12T11:58:37;24.30;62.60
72440;DHT22;60446;50.752;4.352;2023-08-12T12:01:18;24.20;61.90
72440;DHT22;60446;50.752;4.352;2023-08-12T12:03:51;24.00;62.10
72440;DHT22;60446;50.752;4.352;2023-08-12T12:06:31;24.20;64.40
72440;DHT22;60446;50.752;4.352;2023-08-12T12:09:04;24.40;63.00
72440;DHT22;60446;50.752;4.352;2023-08-12T12:11:40;24.40;61.90
72440;DHT22;60446;50.752;4.352;2023-08-12T12:14:09;24.40;60.80
72440;DHT22;60446;50.752;4.352;2023-08-12T12:19:20;24.50;62.90
72440;DHT22;60446;50.752;4.352;2023-08-12T12:21:49;24.50;59.80
72440;DHT22;60446;50.752;4.352;2023-08-12T12:24:19;24.50;59.30
72440;DHT22;60446;50.752;4.352;2023-08-12T12:26:47;24.50;57.50
72440;DHT22;60446;50.752;4.352;2023-08-12T12:29:14;24.60;59.80
72440;DHT22;60446;50.752;4.352;2023-08-12T12:31:42;24.50;59.70
72440;DHT22;60446;50.752;4.352;2023-08-12T12:34:09;24.50;61.40
72440;DHT22;60446;50.752;4.352;2023-08-12T12:36:37;24.70;63.60
72440;DHT22;60446;50.752;4.352;2023-08-12T12:39:05;24.80;59.50
72440;DHT22;60446;50.752;4.352;2023-08-12T12:41:33;25.00;58.80
72440;DHT22;60446;50.752;4.352;2023-08-12T12:44:01;25.10;57.50
72440;DHT22;60446;50.752;4.352;2023-08-12T12:46:29;24.90;56.90
72440;DHT22;60446;50.752;4.352;2023-08-12T12:48:57;24.60;58.40
72440;DHT22;60446;50.752;4.352;2023-08-12T12:51:24;24.60;59.90
72440;DHT22;60446;50.752;4.352;2023-08-12T12:53:51;24.60;59.40
72440;DHT22;60446;50.752;4.352;2023-08-12T12:56:19;24.80;59.70
72440;DHT22;60446;50.752;4.352;2023-08-12T12:58:46;25.00;61.10
72440;DHT22;60446;50.752;4.352;2023-08-12T13:01:14;24.90;58.30
72440;DHT22;60446;50.752;4.352;2023-08-12T13:03:41;24.90;56.90
72440;DHT22;60446;50.752;4.352;2023-08-12T13:06:08;24.90;57.70
72440;DHT22;60446;50.752;4.352;2023-08-12T13:08:36;24.90;56.20
72440;DHT22;60446;50.752;4.352;2023-08-12T13:11:04;24.80;58.00
72440;DHT22;60446;50.752;4.352;2023-08-12T13:13:31;24.70;58.40
72440;DHT22;60446;50.752;4.352;2023-08-12T13:15:59;24.60;56.10
72440;DHT22;60446;50.752;4.352;2023-08-12T13:18:26;24.50;59.50
72440;DHT22;60446;50.752;4.352;2023-08-12T13:20:54;24.70;58.10
72440;DHT22;60446;50.752;4.352;2023-08-12T13:23:22;24.90;56.50
72440;DHT22;60446;50.752;4.352;2023-08-12T13:25:49;25.10;55.90
72440;DHT22;60446;50.752;4.352;2023-08-12T13:28:16;25.10;55.10
72440;DHT22;60446;50.752;4.352;2023-08-12T13:30:47;25.20;56.60
72440;DHT22;60446;50.752;4.352;2023-08-12T13:33:14;25.20;58.40
72440;DHT22;60446;50.752;4.352;2023-08-12T13:35:41;25.50;55.00
72440;DHT22;60446;50.752;4.352;2023-08-12T13:38:08;25.80;56.30
72440;DHT22;60446;50.752;4.352;2023-08-12T13:40:35;26.00;54.40
72440;DHT22;60446;50.752;4.352;2023-08-12T13:43:03;26.20;54.40
72440;DHT22;60446;50.752;4.352;2023-08-12T13:45:31;26.30;53.90
72440;DHT22;60446;50.752;4.352;2023-08-12T13:47:58;26.30;53.80
72440;DHT22;60446;50.752;4.352;2023-08-12T13:50:25;26.20;53.00
72440;DHT22;60446;50.752;4.352;2023-08-12T13:52:53;26.20;52.80
72440;DHT22;60446;50.752;4.352;2023-08-12T13:55:20;26.20;51.70
72440;DHT22;60446;50.752;4.352;2023-08-12T13:57:47;26.20;51.60
72440;DHT22;60446;50.752;4.352;2023-08-12T14:00:14;26.20;53.70
72440;DHT22;60446;50.752;4.352;2023-08-12T14:02:42;26.30;52.70
72440;DHT22;60446;50.752;4.352;2023-08-12T14:05:10;26.30;51.40
72440;DHT22;60446;50.752;4.352;2023-08-12T14:07:38;26.70;54.90
72440;DHT22;60446;50.752;4.352;2023-08-12T14:10:06;26.90;51.90
72440;DHT22;60446;50.752;4.352;2023-08-12T14:12:34;26.90;51.80
72440;DHT22;60446;50.752;4.352;2023-08-12T14:15:02;27.00;49.70
72440;DHT22;60446;50.752;4.352;2023-08-12T14:17:30;27.10;49.70
72440;DHT22;60446;50.752;4.352;2023-08-12T14:19:57;27.10;50.60
72440;DHT22;60446;50.752;4.352;2023-08-12T14:22:26;27.10;53.50
72440;DHT22;60446;50.752;4.352;2023-08-12T14:24:53;27.10;50.60
72440;DHT22;60446;50.752;4.352;2023-08-12T14:27:21;26.90;49.20
72440;DHT22;60446;50.752;4.352;2023-08-12T14:29:49;27.00;51.60
72440;DHT22;60446;50.752;4.352;2023-08-12T14:32:16;27.20;48.60
72440;DHT22;60446;50.752;4.352;2023-08-12T14:34:48;27.30;48.60
72440;DHT22;60446;50.752;4.352;2023-08-12T14:37:15;27.50;49.30
72440;DHT22;60446;50.752;4.352;2023-08-12T14:39:42;27.50;49.10
72440;DHT22;60446;50.752;4.352;2023-08-12T14:42:10;27.70;50.10
72440;DHT22;60446;50.752;4.352;2023-08-12T14:44:38;28.20;47.80
72440;DHT22;60446;50.752;4.352;2023-08-12T14:47:06;28.60;47.90
72440;DHT22;60446;50.752;4.352;2023-08-12T14:49:33;29.20;47.40
72440;DHT22;60446;50.752;4.352;2023-08-12T14:52:00;29.90;46.90
72440;DHT22;60446;50.752;4.352;2023-08-12T14:54:28;30.60;46.50
72440;DHT22;60446;50.752;4.352;2023-08-12T14:56:55;31.40;44.00
72440;DHT22;60446;50.752;4.352;2023-08-12T14:59:22;31.70;42.50
72440;DHT22;60446;50.752;4.352;2023-08-12T15:01:49;31.80;39.90
72440;DHT22;60446;50.752;4.352;2023-08-12T15:04:16;31.90;43.40
72440;DHT22;60446;50.752;4.352;2023-08-12T15:06:43;32.10;42.50
72440;DHT22;60446;50.752;4.352;2023-08-12T15:09:11;32.10;41.30
72440;DHT22;60446;50.752;4.352;2023-08-12T15:11:38;32.40;40.70
72440;DHT22;60446;50.752;4.352;2023-08-12T15:14:05;32.20;39.30
72440;DHT22;60446;50.752;4.352;2023-08-12T15:16:32;31.90;38.50
72440;DHT22;60446;50.752;4.352;2023-08-12T15:19:00;31.30;40.50
72440;DHT22;60446;50.752;4.352;2023-08-12T15:21:28;31.20;40.90
72440;DHT22;60446;50.752;4.352;2023-08-12T15:23:55;30.80;41.70
72440;DHT22;60446;50.752;4.352;2023-08-12T15:26:23;30.70;42.10
72440;DHT22;60446;50.752;4.352;2023-08-12T15:28:51;31.00;42.70
72440;DHT22;60446;50.752;4.352;2023-08-12T15:31:19;31.60;41.40
72440;DHT22;60446;50.752;4.352;2023-08-12T15:33:46;31.90;40.90
72440;DHT22;60446;50.752;4.352;2023-08-12T15:36:14;31.90;41.10
72440;DHT22;60446;50.752;4.352;2023-08-12T15:38:43;32.10;41.60
72440;DHT22;60446;50.752;4.352;2023-08-12T15:41:13;32.30;40.40
72440;DHT22;60446;50.752;4.352;2023-08-12T15:43:42;32.00;39.30